createdAt,value
2018-09-21T00:02:28.079Z,23.73
2018-09-21T00:04:56.386Z,23.39
2018-09-21T00:07:24.698Z,23.55
2018-09-21T00:09:53.062Z,23.97
2018-09-21T00:12:21.458Z,23.38
2018-09-21T00:14:49.831Z,23.46
2018-09-21T00:17:18.138Z,23.80
2018-09-21T00:19:46.493Z,23.38
2018-09-21T00:22:14.782Z,23.53
2018-09-21T00:24:43.094Z,23.38
2018-09-21T00:27:11.507Z,23.53
2018-09-21T00:29:39.894Z,23.29
2018-09-21T00:32:08.207Z,23.71
2018-09-21T00:34:36.502Z,23.41
2018-09-21T00:37:04.776Z,23.89
2018-09-21T00:39:33.118Z,23.69
2018-09-21T00:42:01.477Z,23.23
2018-09-21T00:44:29.834Z,23.73
2018-09-21T00:46:58.187Z,23.69
2018-09-21T00:49:26.531Z,23.71
2018-09-21T00:51:54.894Z,23.79
2018-09-21T00:54:23.176Z,23.86
2018-09-21T00:56:51.455Z,23.72
2018-09-21T00:59:19.850Z,24.04
2018-09-21T01:01:48.202Z,23.97
2018-09-21T01:04:16.518Z,23.63
2018-09-21T01:06:44.827Z,23.71
2018-09-21T01:09:13.111Z,23.98
2018-09-21T01:11:41.470Z,23.88
2018-09-21T01:14:09.756Z,23.81
2018-09-21T01:16:38.073Z,23.90
2018-09-21T01:19:06.564Z,23.82
2018-09-21T01:21:34.886Z,23.37
2018-09-21T01:24:03.216Z,23.87
2018-09-21T01:26:31.591Z,24.17
2018-09-21T01:28:59.971Z,23.79
2018-09-21T01:31:28.390Z,23.91
2018-09-21T01:33:56.763Z,23.79
2018-09-21T01:36:25.355Z,23.84
2018-09-21T01:38:53.788Z,23.71
2018-09-21T01:41:22.279Z,23.68
2018-09-21T01:43:50.818Z,23.82
2018-09-21T01:46:19.151Z,23.86
2018-09-21T01:48:47.530Z,23.87
2018-09-21T01:51:15.851Z,24.03
2018-09-21T01:53:44.195Z,23.68
2018-09-21T01:56:12.555Z,23.18
2018-09-21T01:58:40.930Z,23.46
2018-09-21T02:01:09.327Z,23.62
2018-09-21T02:03:37.719Z,23.85
2018-09-21T02:06:06.080Z,23.71
2018-09-21T02:08:34.516Z,23.46
2018-09-21T02:11:02.959Z,23.79
2018-09-21T02:13:31.364Z,23.55
2018-09-21T02:15:59.674Z,23.55
2018-09-21T02:18:27.989Z,23.63
2018-09-21T02:20:56.267Z,23.67
2018-09-21T02:23:24.754Z,23.64
2018-09-21T02:25:53.068Z,23.47
2018-09-21T02:28:21.611Z,23.44
2018-09-21T02:30:50.360Z,23.41
2018-09-21T02:33:18.651Z,23.19
2018-09-21T02:35:47.019Z,23.09
2018-09-21T02:38:15.427Z,23.22
2018-09-21T02:40:43.764Z,23.31
2018-09-21T02:43:12.115Z,23.43
2018-09-21T02:45:40.455Z,23.57
2018-09-21T02:48:08.808Z,23.32
2018-09-21T02:50:37.160Z,23.22
2018-09-21T02:53:05.485Z,22.92
2018-09-21T02:55:33.779Z,23.23
2018-09-21T02:58:02.040Z,23.08
2018-09-21T03:00:31.829Z,23.00
2018-09-21T03:03:00.267Z,23.22
2018-09-21T03:05:28.791Z,23.32
2018-09-21T03:07:57.270Z,23.30
2018-09-21T03:10:25.652Z,22.91
2018-09-21T03:12:54.078Z,22.93
2018-09-21T03:15:22.491Z,22.69
2018-09-21T03:17:50.753Z,22.52
2018-09-21T03:20:19.016Z,22.93
2018-09-21T03:22:47.263Z,22.92
2018-09-21T03:25:15.520Z,22.78
2018-09-21T03:27:44.708Z,23.00
2018-09-21T03:30:13.937Z,22.73
2018-09-21T03:32:42.230Z,22.67
2018-09-21T03:35:10.664Z,23.03
2018-09-21T03:37:38.899Z,22.86
2018-09-21T03:40:07.315Z,23.33
2018-09-21T03:42:35.803Z,22.94
2018-09-21T03:45:04.176Z,22.80
2018-09-21T03:47:32.564Z,22.97
2018-09-21T03:50:00.910Z,23.34
2018-09-21T03:52:29.319Z,23.21
2018-09-21T03:54:57.615Z,23.01
2018-09-21T03:57:25.971Z,22.98
2018-09-21T03:59:54.328Z,22.77
2018-09-21T04:02:22.706Z,23.22
2018-09-21T04:04:50.987Z,22.67
2018-09-21T04:07:19.255Z,22.68
2018-09-21T04:09:47.575Z,23.01
2018-09-21T04:12:15.831Z,23.21
2018-09-21T04:14:44.088Z,23.57
2018-09-21T04:17:12.444Z,23.18
2018-09-21T04:19:40.988Z,22.81
2018-09-21T04:22:09.311Z,23.53
2018-09-21T04:24:37.667Z,23.37
2018-09-21T04:27:06.089Z,22.92
2018-09-21T04:29:34.472Z,23.46
2018-09-21T04:32:02.907Z,23.26
2018-09-21T04:34:31.336Z,23.00
2018-09-21T04:36:59.699Z,22.96
2018-09-21T04:39:28.070Z,22.79
2018-09-21T04:41:56.466Z,23.23
2018-09-21T04:44:24.858Z,23.14
2018-09-21T04:46:53.302Z,23.13
2018-09-21T04:49:21.703Z,23.20
2018-09-21T04:51:50.060Z,22.75
2018-09-21T04:54:18.321Z,22.99
2018-09-21T04:56:46.791Z,23.14
2018-09-21T04:59:15.190Z,23.30
2018-09-21T05:01:43.647Z,23.19
2018-09-21T05:04:12.112Z,23.26
2018-09-21T05:06:40.578Z,23.60
2018-09-21T05:09:10.032Z,23.48
2018-09-21T05:11:38.488Z,23.45
2018-09-21T05:14:06.786Z,22.86
2018-09-21T05:16:35.119Z,23.50
2018-09-21T05:19:03.387Z,23.25
2018-09-21T05:21:31.698Z,23.27
2018-09-21T05:24:01.555Z,23.21
2018-09-21T05:26:29.930Z,23.23
2018-09-21T05:28:58.288Z,23.47
2018-09-21T05:31:26.715Z,23.39
2018-09-21T05:33:55.001Z,23.31
2018-09-21T05:36:23.232Z,23.21
2018-09-21T05:38:51.512Z,23.61
2018-09-21T05:41:19.771Z,23.70
2018-09-21T05:43:48.130Z,23.87
2018-09-21T05:46:16.448Z,23.86
2018-09-21T05:48:44.738Z,24.24
2018-09-21T05:51:13.043Z,23.39
2018-09-21T05:53:41.511Z,23.20
2018-09-21T05:56:09.956Z,23.99
2018-09-21T05:58:38.415Z,23.94
2018-09-21T06:01:06.903Z,24.14
2018-09-21T06:03:35.210Z,24.14
2018-09-21T06:06:03.538Z,23.98
2018-09-21T06:08:31.827Z,24.81
2018-09-21T06:11:00.173Z,24.82
2018-09-21T06:13:28.476Z,24.23
2018-09-21T06:15:56.862Z,24.76
2018-09-21T06:18:25.272Z,24.45
2018-09-21T06:20:53.706Z,25.06
2018-09-21T06:23:22.131Z,24.61
2018-09-21T06:25:50.561Z,24.90
2018-09-21T06:28:18.975Z,25.76
2018-09-21T06:30:47.295Z,25.60
2018-09-21T06:33:15.719Z,26.07
2018-09-21T06:35:44.166Z,26.32
2018-09-21T06:38:12.602Z,25.99
2018-09-21T06:40:41.054Z,24.95
2018-09-21T06:43:09.544Z,25.44
2018-09-21T06:45:37.936Z,26.62
2018-09-21T06:48:06.409Z,25.69
2018-09-21T06:50:34.839Z,25.62
2018-09-21T06:53:03.199Z,26.01
2018-09-21T06:55:31.791Z,24.55
2018-09-21T06:58:00.186Z,24.40
2018-09-21T07:00:28.549Z,24.16
2018-09-21T07:02:56.905Z,24.49
2018-09-21T07:05:25.273Z,25.32
2018-09-21T07:07:53.650Z,24.24
2018-09-21T07:10:21.984Z,25.01
2018-09-21T07:12:50.242Z,24.89
2018-09-21T07:15:18.570Z,24.55
2018-09-21T07:17:47.010Z,24.87
2018-09-21T07:20:15.498Z,24.20
2018-09-21T07:22:43.976Z,23.83
2018-09-21T07:25:12.317Z,23.85
2018-09-21T07:27:40.641Z,23.99
2018-09-21T07:30:09.028Z,24.24
2018-09-21T07:32:37.328Z,24.22
2018-09-21T07:35:05.659Z,24.28
2018-09-21T07:37:34.153Z,24.80
2018-09-21T07:40:02.837Z,24.33
2018-09-21T07:42:31.284Z,24.84
2018-09-21T07:44:59.527Z,24.11
2018-09-21T07:47:27.904Z,24.36
2018-09-21T07:49:56.160Z,24.43
2018-09-21T07:52:24.419Z,24.17
2018-09-21T07:54:52.789Z,24.41
2018-09-21T07:57:21.113Z,24.60
2018-09-21T07:59:49.505Z,24.05
2018-09-21T08:02:17.919Z,24.57
2018-09-21T08:04:46.449Z,24.29
2018-09-21T08:07:14.914Z,24.53
2018-09-21T08:09:43.356Z,24.43
2018-09-21T08:12:11.768Z,24.41
2018-09-21T08:14:40.199Z,24.67
2018-09-21T08:17:08.611Z,25.22
2018-09-21T08:19:37.041Z,24.60
2018-09-21T08:22:05.460Z,24.28
2018-09-21T08:24:33.885Z,24.79
2018-09-21T08:27:02.332Z,25.02
2018-09-21T08:29:30.873Z,25.40
2018-09-21T08:31:59.296Z,25.91
2018-09-21T08:34:27.715Z,25.40
2018-09-21T08:36:56.123Z,25.01
2018-09-21T08:39:24.526Z,24.86
2018-09-21T08:41:52.991Z,25.42
2018-09-21T08:44:21.251Z,25.51
2018-09-21T08:46:49.526Z,25.58
2018-09-21T08:49:17.875Z,25.27
2018-09-21T08:51:46.164Z,24.96
2018-09-21T08:54:14.574Z,24.33
2018-09-21T08:56:43.000Z,24.27
2018-09-21T08:59:11.314Z,24.39
2018-09-21T09:01:39.744Z,25.01
2018-09-21T09:04:09.290Z,24.69
2018-09-21T09:06:37.723Z,24.80
2018-09-21T09:09:08.409Z,24.42
2018-09-21T09:11:36.810Z,24.47
2018-09-21T09:14:11.399Z,24.80
2018-09-21T09:16:39.912Z,25.12
2018-09-21T09:19:08.331Z,24.65
2018-09-21T09:21:36.732Z,25.07
2018-09-21T09:24:05.128Z,25.57
2018-09-21T09:26:33.524Z,25.52
2018-09-21T09:29:01.962Z,26.82
2018-09-21T09:31:30.359Z,28.00
2018-09-21T09:33:59.818Z,29.35
2018-09-21T09:36:28.211Z,28.99
2018-09-21T09:38:56.486Z,30.17
2018-09-21T09:44:08.375Z,30.08
2018-09-21T09:46:36.809Z,28.46
2018-09-21T09:49:05.590Z,26.84
2018-09-21T09:51:33.951Z,26.46
2018-09-21T09:54:02.330Z,25.87
2018-09-21T09:56:30.746Z,26.18
2018-09-21T09:58:59.110Z,25.79
2018-09-21T10:01:27.471Z,26.62
2018-09-21T10:03:55.957Z,25.54
2018-09-21T10:06:24.529Z,24.84
2018-09-21T10:08:52.911Z,24.64
2018-09-21T10:11:21.281Z,25.38
2018-09-21T10:13:49.864Z,24.72
2018-09-21T10:16:19.005Z,24.62
2018-09-21T10:21:30.060Z,24.06
2018-09-21T10:23:58.595Z,24.21
2018-09-21T10:26:29.970Z,24.49
2018-09-21T10:28:59.459Z,23.88
2018-09-21T10:31:28.100Z,23.90
2018-09-21T10:33:56.905Z,23.95
2018-09-21T10:36:26.463Z,23.64
2018-09-21T10:38:54.939Z,23.25
2018-09-21T10:41:24.892Z,23.85
2018-09-21T10:43:55.131Z,23.84
2018-09-21T10:46:23.873Z,23.08
2018-09-21T10:48:52.425Z,22.98
2018-09-21T10:51:20.895Z,23.37
2018-09-21T10:53:49.335Z,22.68
2018-09-21T10:56:17.944Z,21.73
2018-09-21T10:58:46.568Z,22.41
2018-09-21T11:01:14.982Z,21.96
2018-09-21T11:03:43.399Z,20.21
2018-09-21T11:06:11.799Z,19.10
2018-09-21T11:08:40.254Z,18.24
2018-09-21T11:11:08.727Z,18.04
2018-09-21T11:13:37.420Z,17.38
2018-09-21T11:16:06.175Z,16.44
2018-09-21T11:18:34.665Z,17.31
2018-09-21T11:21:03.156Z,16.72
2018-09-21T11:23:31.636Z,16.76
2018-09-21T11:26:00.112Z,17.25
2018-09-21T11:28:28.524Z,16.59
2018-09-21T11:30:57.099Z,15.75
2018-09-21T11:33:25.590Z,15.55
2018-09-21T11:35:55.126Z,15.44
2018-09-21T11:38:23.542Z,15.95
2018-09-21T11:40:52.247Z,15.82
2018-09-21T11:43:20.720Z,15.69
2018-09-21T11:45:49.317Z,16.00
2018-09-21T11:48:17.871Z,16.49
2018-09-21T11:50:46.495Z,17.45
2018-09-21T11:53:15.023Z,16.86
2018-09-21T11:55:43.617Z,16.79
2018-09-21T11:58:12.158Z,16.37
2018-09-21T12:00:40.777Z,17.10
2018-09-21T12:03:09.327Z,17.03
2018-09-21T12:05:37.764Z,17.27
2018-09-21T12:08:06.144Z,17.24
2018-09-21T12:10:34.674Z,16.25
2018-09-21T12:13:03.068Z,16.65
2018-09-21T12:15:31.532Z,17.11
2018-09-21T12:17:59.971Z,16.28
2018-09-21T12:20:28.771Z,17.91
2018-09-21T12:22:57.151Z,17.27
2018-09-21T12:25:25.520Z,17.57
2018-09-21T12:27:54.033Z,17.76
2018-09-21T12:30:22.764Z,17.71
2018-09-21T12:32:51.140Z,18.02
2018-09-21T12:35:19.571Z,18.83
2018-09-21T12:37:48.021Z,17.59
2018-09-21T12:40:16.352Z,18.04
2018-09-21T12:42:44.771Z,17.36
2018-09-21T12:45:13.644Z,16.36
2018-09-21T12:47:42.026Z,17.27
2018-09-21T12:50:10.565Z,17.97
2018-09-21T12:52:38.928Z,17.55
2018-09-21T12:55:07.387Z,17.34
2018-09-21T12:57:35.808Z,17.18
2018-09-21T13:00:04.264Z,18.13
2018-09-21T13:02:32.729Z,17.67
2018-09-21T13:05:01.185Z,17.85
2018-09-21T13:07:29.605Z,16.57
2018-09-21T13:09:58.007Z,16.84
2018-09-21T13:12:26.449Z,16.53
2018-09-21T13:14:54.954Z,16.80
2018-09-21T13:17:23.571Z,17.84
2018-09-21T13:19:52.023Z,17.64
2018-09-21T13:22:20.540Z,18.02
2018-09-21T13:24:48.977Z,18.28
2018-09-21T13:27:17.385Z,17.74
2018-09-21T13:29:45.846Z,17.13
2018-09-21T13:32:14.290Z,17.19
2018-09-21T13:34:42.749Z,17.16
2018-09-21T13:37:11.303Z,17.25
2018-09-21T13:39:39.736Z,17.95
2018-09-21T13:42:08.183Z,17.64
2018-09-21T13:44:36.618Z,17.85
2018-09-21T13:47:05.381Z,17.73
2018-09-21T13:49:33.831Z,18.24
2018-09-21T13:52:03.323Z,18.26
2018-09-21T13:54:31.740Z,17.97
2018-09-21T13:57:00.230Z,18.03
2018-09-21T13:59:28.691Z,18.21
2018-09-21T14:01:57.375Z,18.30
2018-09-21T14:04:25.855Z,18.54
2018-09-21T14:06:54.283Z,17.65
2018-09-21T14:09:22.704Z,17.37
2018-09-21T14:11:51.188Z,17.23
2018-09-21T14:14:19.633Z,16.53
2018-09-21T14:16:48.114Z,16.90
2018-09-21T14:19:16.599Z,16.91
2018-09-21T14:21:45.034Z,16.91
2018-09-21T14:24:13.501Z,16.59
2018-09-21T14:26:41.980Z,17.20
2018-09-21T14:29:10.483Z,17.15
2018-09-21T14:31:38.875Z,17.72
2018-09-21T14:34:08.658Z,17.79
2018-09-21T14:36:37.257Z,18.01
2018-09-21T14:39:08.169Z,17.80
2018-09-21T14:41:36.644Z,17.32
2018-09-21T14:44:05.423Z,17.66
2018-09-21T14:46:33.857Z,18.06
2018-09-21T14:49:02.370Z,16.97
2018-09-21T14:51:30.858Z,17.86
2018-09-21T14:54:05.981Z,17.60
2018-09-21T14:56:34.450Z,18.22
2018-09-21T14:59:03.016Z,17.96
2018-09-21T15:01:31.452Z,16.91
2018-09-21T15:04:00.037Z,17.87
2018-09-21T15:06:28.440Z,17.93
2018-09-21T15:08:56.905Z,16.85
2018-09-21T15:11:25.783Z,17.55
2018-09-21T15:13:54.493Z,17.20
2018-09-21T15:16:22.967Z,16.80
2018-09-21T15:18:51.492Z,16.58
2018-09-21T15:21:19.920Z,17.45
2018-09-21T15:23:53.173Z,16.65
2018-09-21T15:26:21.608Z,17.04
2018-09-21T15:28:49.952Z,16.93
2018-09-21T15:31:18.311Z,17.14
2018-09-21T15:33:46.742Z,17.27
2018-09-21T15:36:15.178Z,16.45
2018-09-21T15:38:43.643Z,16.91
2018-09-21T15:41:11.936Z,16.54
2018-09-21T15:43:40.321Z,16.68
2018-09-21T15:46:08.672Z,16.44
2018-09-21T15:48:37.116Z,16.13
2018-09-21T15:51:05.437Z,16.71
2018-09-21T15:53:33.742Z,16.82
2018-09-21T15:56:03.231Z,16.90
2018-09-21T15:58:31.536Z,17.17
2018-09-21T16:00:59.843Z,17.45
2018-09-21T16:03:28.276Z,17.63
2018-09-21T16:05:56.686Z,17.02
2018-09-21T16:08:24.977Z,17.15
2018-09-21T16:10:53.331Z,16.73
2018-09-21T16:13:21.876Z,16.82
2018-09-21T16:15:50.174Z,16.57
2018-09-21T16:18:18.501Z,17.34
2018-09-21T16:20:46.872Z,16.54
2018-09-21T16:23:15.181Z,16.70
2018-09-21T16:25:43.663Z,16.88
2018-09-21T16:28:15.298Z,16.61
2018-09-21T16:30:43.594Z,16.61
2018-09-21T16:33:11.992Z,16.63
2018-09-21T16:35:40.534Z,16.78
2018-09-21T16:38:08.976Z,17.05
2018-09-21T16:40:37.354Z,17.60
2018-09-21T16:43:05.655Z,17.63
2018-09-21T16:45:33.979Z,17.27
2018-09-21T16:48:02.401Z,16.95
2018-09-21T16:50:30.732Z,17.14
2018-09-21T16:52:59.041Z,16.22
2018-09-21T16:55:27.368Z,16.84
2018-09-21T16:57:55.731Z,16.73
2018-09-21T17:00:24.003Z,16.61
2018-09-21T17:02:52.364Z,16.49
2018-09-21T17:05:20.706Z,16.39
2018-09-21T17:07:49.046Z,15.86
2018-09-21T17:10:17.392Z,16.11
2018-09-21T17:12:45.823Z,15.55
2018-09-21T17:15:14.176Z,15.96
2018-09-21T17:17:42.529Z,16.17
2018-09-21T17:20:10.922Z,15.87
2018-09-21T17:22:39.191Z,15.78
2018-09-21T17:25:08.094Z,15.66
2018-09-21T17:27:36.415Z,15.19
2018-09-21T17:30:04.890Z,15.47
2018-09-21T17:32:33.359Z,15.65
2018-09-21T17:35:01.721Z,15.15
2018-09-21T17:37:30.188Z,15.66
2018-09-21T17:39:58.755Z,15.13
2018-09-21T17:42:27.232Z,14.47
2018-09-21T17:44:55.696Z,14.84
2018-09-21T17:47:24.131Z,14.67
2018-09-21T17:49:52.559Z,15.15
2018-09-21T17:52:21.049Z,15.37
2018-09-21T17:54:49.479Z,15.08
2018-09-21T17:57:17.916Z,14.46
2018-09-21T17:59:46.314Z,14.49
2018-09-21T18:02:14.740Z,14.97
2018-09-21T18:04:43.246Z,15.25
2018-09-21T18:07:18.909Z,14.60
2018-09-21T18:09:48.059Z,15.01
2018-09-21T18:12:16.486Z,14.76
2018-09-21T18:14:44.930Z,14.90
2018-09-21T18:17:13.388Z,14.83
2018-09-21T18:19:42.026Z,13.94
2018-09-21T18:22:10.951Z,14.19
2018-09-21T18:24:39.396Z,14.14
2018-09-21T18:27:07.911Z,14.06
2018-09-21T18:29:36.460Z,14.40
2018-09-21T18:32:04.897Z,13.95
2018-09-21T18:34:33.296Z,14.07
2018-09-21T18:37:01.883Z,14.08
2018-09-21T18:39:30.557Z,14.24
2018-09-21T18:41:59.385Z,14.19
2018-09-21T18:44:27.826Z,14.24
2018-09-21T18:46:56.345Z,13.84
2018-09-21T18:49:24.801Z,14.22
2018-09-21T18:51:53.210Z,14.12
2018-09-21T18:54:28.051Z,14.44
2018-09-21T18:56:56.704Z,14.25
2018-09-21T18:59:25.188Z,14.12
2018-09-21T19:01:53.642Z,14.21
2018-09-21T19:04:22.100Z,14.36
2018-09-21T19:06:50.677Z,14.98
2018-09-21T19:09:19.157Z,14.55
2018-09-21T19:11:47.637Z,14.09
2018-09-21T19:14:16.323Z,14.07
2018-09-21T19:16:44.754Z,14.17
2018-09-21T19:19:13.199Z,13.83
2018-09-21T19:21:41.669Z,14.19
2018-09-21T19:24:10.061Z,13.88
2018-09-21T19:26:38.580Z,14.12
2018-09-21T19:29:06.991Z,13.90
2018-09-21T19:31:35.485Z,14.15
2018-09-21T19:34:03.897Z,14.05
2018-09-21T19:36:32.327Z,13.67
2018-09-21T19:39:00.782Z,13.92
2018-09-21T19:41:29.249Z,14.12
2018-09-21T19:43:57.668Z,13.80
2018-09-21T19:46:26.099Z,13.87
2018-09-21T19:48:54.550Z,14.04
2018-09-21T19:51:23.005Z,14.37
2018-09-21T19:53:51.487Z,14.19
2018-09-21T19:56:19.935Z,13.92
2018-09-21T19:58:48.362Z,13.98
2018-09-21T20:01:16.792Z,14.38
2018-09-21T20:03:45.280Z,13.83
2018-09-21T20:06:13.763Z,14.18
2018-09-21T20:08:42.233Z,14.14
2018-09-21T20:11:10.731Z,14.18
2018-09-21T20:13:39.239Z,13.76
2018-09-21T20:16:07.927Z,14.25
2018-09-21T20:18:36.339Z,14.14
2018-09-21T20:21:04.775Z,13.65
2018-09-21T20:23:33.236Z,13.60
2018-09-21T20:26:01.935Z,13.95
2018-09-21T20:28:30.352Z,13.75
2018-09-21T20:31:04.159Z,13.66
2018-09-21T20:33:33.854Z,13.99
2018-09-21T20:36:02.320Z,13.92
2018-09-21T20:38:30.809Z,13.52
2018-09-21T20:40:59.282Z,13.42
2018-09-21T20:43:27.736Z,13.77
2018-09-21T20:45:56.305Z,13.67
2018-09-21T20:48:25.102Z,13.40
2018-09-21T20:50:53.583Z,13.29
2018-09-21T20:53:22.811Z,13.07
2018-09-21T20:55:51.181Z,13.56
2018-09-21T20:58:19.652Z,13.39
2018-09-21T21:00:48.105Z,13.45
2018-09-21T21:03:16.551Z,13.74
2018-09-21T21:05:45.088Z,13.98
2018-09-21T21:08:13.535Z,13.82
2018-09-21T21:10:41.928Z,13.40
2018-09-21T21:13:10.355Z,13.96
2018-09-21T21:15:38.804Z,13.56
2018-09-21T21:18:07.322Z,13.64
2018-09-21T21:20:35.914Z,13.51
2018-09-21T21:23:04.318Z,13.93
2018-09-21T21:25:32.903Z,13.41
2018-09-21T21:28:01.270Z,13.36
2018-09-21T21:30:29.649Z,13.45
2018-09-21T21:32:58.018Z,13.30
2018-09-21T21:35:26.395Z,13.70
2018-09-21T21:37:54.798Z,13.49
2018-09-21T21:40:23.187Z,13.21
2018-09-21T21:42:51.617Z,13.42
2018-09-21T21:45:20.060Z,13.44
2018-09-21T21:47:48.559Z,13.20
2018-09-21T21:50:16.963Z,13.25
2018-09-21T21:52:45.416Z,13.38
2018-09-21T21:55:13.896Z,13.22
2018-09-21T21:57:42.358Z,13.14
2018-09-21T22:00:11.119Z,13.15
2018-09-21T22:02:39.572Z,13.46
2018-09-21T22:05:07.996Z,13.33
2018-09-21T22:07:37.512Z,13.53
2018-09-21T22:10:07.392Z,13.29
2018-09-21T22:12:41.870Z,13.39
2018-09-21T22:15:25.534Z,13.15
2018-09-21T22:17:53.967Z,13.56
2018-09-21T22:20:22.375Z,13.71
2018-09-21T22:22:50.787Z,13.60
2018-09-21T22:25:19.206Z,13.34
2018-09-21T22:27:47.620Z,14.01
2018-09-21T22:30:16.061Z,13.88
2018-09-21T22:32:44.463Z,13.98
2018-09-21T22:35:12.960Z,14.09
2018-09-21T22:37:41.372Z,13.60
2018-09-21T22:40:09.656Z,13.47
2018-09-21T22:42:37.927Z,14.31
2018-09-21T22:45:12.994Z,14.08
2018-09-21T22:47:41.360Z,14.12
2018-09-21T22:50:09.797Z,13.91
2018-09-21T22:52:38.076Z,14.59
2018-09-21T22:55:06.420Z,13.86
2018-09-21T22:57:34.713Z,13.90
2018-09-21T23:00:03.043Z,13.61
2018-09-21T23:02:31.463Z,13.69
2018-09-21T23:04:59.774Z,13.74
2018-09-21T23:07:28.031Z,13.73
2018-09-21T23:09:56.311Z,13.60
2018-09-21T23:12:24.592Z,13.66
2018-09-21T23:14:52.860Z,13.79
2018-09-21T23:17:21.139Z,14.02
2018-09-21T23:19:49.407Z,13.93
2018-09-21T23:22:17.672Z,13.38
2018-09-21T23:24:46.043Z,13.47
2018-09-21T23:27:14.317Z,13.38
2018-09-21T23:29:42.599Z,13.71
2018-09-21T23:32:11.002Z,14.19
2018-09-21T23:34:39.294Z,13.74
2018-09-21T23:37:07.670Z,14.38
2018-09-21T23:39:35.960Z,14.04
2018-09-21T23:42:04.233Z,13.40
2018-09-21T23:44:32.506Z,13.98
2018-09-21T23:47:00.811Z,13.90
2018-09-21T23:49:29.120Z,13.70
2018-09-21T23:51:57.457Z,13.51
2018-09-21T23:54:25.742Z,13.32
2018-09-21T23:56:54.082Z,13.11
2018-09-21T23:59:22.381Z,13.60
